Schedule Details


Flight Number: CTN700
Departure: Franjo Tudman (LDZA) at 08:00
Arrival: Lisbon (LPPT) at 10:15
Route: KOTOR?UT742?NAKIT?UL615?ROTAR?DCT?BENUS?DCT?IVLOX?DCT?DORAV?DCT?BORDI?UZ185?KOLON?UM984?DIVKO?UN975?BGR?UQ47?ASTRO?UM985?YES?UN747?SVL?UM744?ROSAL?UZ227?EXONA

Weather Information
LDZA 242100Z 33002KT CAVOK 22/18 Q1021 NOSIG
LPPT 242100Z 32005KT 290V350 CAVOK 19/14 Q1016
Schedule Frequency

Route Map